createdAt,value
2023-01-22T00:00:43.904Z,80544.31
2023-01-22T00:05:47.148Z,80538.28
2023-01-22T00:10:53.486Z,80548.31
2023-01-22T00:15:58.361Z,80556.34
2023-01-22T00:21:00.023Z,80548.31
2023-01-22T00:26:16.119Z,80554.34
2023-01-22T00:31:18.228Z,80552.31
2023-01-22T00:36:21.514Z,80558.34
2023-01-22T00:41:23.089Z,80560.34
2023-01-22T00:46:24.581Z,80558.34
2023-01-22T00:51:26.060Z,80580.41
2023-01-22T00:56:28.245Z,80578.41
2023-01-22T01:01:29.778Z,80582.41
2023-01-22T01:06:31.243Z,80574.41
2023-01-22T01:11:32.819Z,80580.41
2023-01-22T01:16:34.414Z,80594.47
2023-01-22T01:21:36.280Z,80588.44
2023-01-22T01:26:39.368Z,80590.44
2023-01-22T01:31:40.918Z,80594.47
2023-01-22T01:36:49.914Z,80584.44
2023-01-22T01:41:51.485Z,80580.41
2023-01-22T01:46:57.814Z,80586.44
2023-01-22T01:52:07.323Z,80576.41
2023-01-22T01:57:14.628Z,80582.41
2023-01-22T02:02:17.063Z,80592.44
2023-01-22T02:07:19.217Z,80594.47
2023-01-22T02:12:20.766Z,80600.47
2023-01-22T02:17:22.570Z,80602.47
2023-01-22T02:22:29.121Z,80614.53
2023-01-22T02:27:30.585Z,80602.47
2023-01-22T02:32:32.036Z,80616.53
2023-01-22T02:37:33.460Z,80624.56
2023-01-22T02:42:34.980Z,80638.59
2023-01-22T02:47:36.561Z,80634.59
2023-01-22T02:52:38.018Z,80636.59
2023-01-22T02:57:39.485Z,80626.56
2023-01-22T03:02:40.975Z,80636.59
2023-01-22T03:07:44.571Z,80640.59
2023-01-22T03:13:06.234Z,80632.56
2023-01-22T03:18:26.645Z,80628.56
2023-01-22T03:23:28.099Z,80638.59
2023-01-22T03:28:29.554Z,80638.59
2023-01-22T03:33:31.606Z,80642.59
2023-01-22T03:38:33.345Z,80642.59
2023-01-22T03:43:35.357Z,80658.66
2023-01-22T03:48:37.754Z,80658.66
2023-01-22T03:53:40.098Z,80642.59
2023-01-22T03:58:42.170Z,80636.59
2023-01-22T04:03:44.170Z,80644.63
2023-01-22T04:08:47.641Z,80634.59
2023-01-22T04:13:49.281Z,80632.56
2023-01-22T04:18:50.810Z,80630.56
2023-01-22T04:23:52.429Z,80628.56
2023-01-22T04:28:53.902Z,80620.53
2023-01-22T04:33:55.347Z,80620.53
2023-01-22T04:38:56.830Z,80636.59
2023-01-22T04:43:58.500Z,80624.56
2023-01-22T04:49:00.095Z,80614.53
2023-01-22T04:54:01.559Z,80620.53
2023-01-22T04:59:03.068Z,80626.56
2023-01-22T05:04:04.861Z,80630.56
2023-01-22T05:09:06.347Z,80616.53
2023-01-22T05:14:10.383Z,80614.53
2023-01-22T05:19:11.914Z,80610.50
2023-01-22T05:24:13.362Z,80606.50
2023-01-22T05:29:14.853Z,80602.47
2023-01-22T05:34:16.394Z,80594.47
2023-01-22T05:39:17.966Z,80596.47
2023-01-22T05:44:19.442Z,80606.50
2023-01-22T05:49:20.967Z,80600.47
2023-01-22T05:54:22.423Z,80598.47
2023-01-22T05:59:23.869Z,80600.47
2023-01-22T06:04:25.585Z,80614.53
2023-01-22T06:09:27.234Z,80620.53
2023-01-22T06:14:28.646Z,80610.50
2023-01-22T06:19:31.126Z,80616.53
2023-01-22T06:24:32.576Z,80610.50
2023-01-22T06:29:33.977Z,80620.53
2023-01-22T06:34:35.537Z,80622.53
2023-01-22T06:39:37.051Z,80624.56
2023-01-22T06:44:38.473Z,80618.53
2023-01-22T06:49:39.905Z,80634.59
2023-01-22T06:54:41.391Z,80638.59
2023-01-22T06:59:42.884Z,80648.63
2023-01-22T07:04:44.596Z,80654.66
2023-01-22T07:09:46.122Z,80668.69
2023-01-22T07:14:47.615Z,80654.66
2023-01-22T07:19:49.039Z,80676.72
2023-01-22T07:24:50.530Z,80668.69
2023-01-22T07:29:52.086Z,80670.69
2023-01-22T07:34:53.526Z,80668.69
2023-01-22T07:39:54.979Z,80656.66
2023-01-22T07:44:56.410Z,80656.66
2023-01-22T07:49:57.965Z,80654.66
2023-01-22T07:54:59.418Z,80646.63
2023-01-22T08:00:00.871Z,80662.66
2023-01-22T08:05:02.325Z,80668.69
2023-01-22T08:10:04.016Z,80646.63
2023-01-22T08:15:06.038Z,80636.59
2023-01-22T08:20:09.228Z,80642.59
2023-01-22T08:25:11.781Z,80644.63
2023-01-22T08:30:13.632Z,80618.53
2023-01-22T08:35:15.174Z,80604.50
2023-01-22T08:40:18.322Z,80596.47
2023-01-22T08:45:20.377Z,80584.44
2023-01-22T08:50:21.882Z,80568.38
2023-01-22T08:55:23.902Z,80582.41
2023-01-22T09:00:26.049Z,80572.38
2023-01-22T09:05:28.313Z,80576.41
2023-01-22T09:10:29.793Z,80574.41
2023-01-22T09:15:31.349Z,80572.38
2023-01-22T09:20:32.849Z,80554.34
2023-01-22T09:25:34.394Z,80562.34
2023-01-22T09:30:39.303Z,80566.38
2023-01-22T09:35:40.781Z,80568.38
2023-01-22T09:40:51.728Z,80564.38
2023-01-22T09:45:56.898Z,80558.34
2023-01-22T09:50:58.502Z,80558.34
2023-01-22T09:56:01.213Z,80552.31
2023-01-22T10:01:05.836Z,80548.31
2023-01-22T10:06:12.063Z,80532.25
2023-01-22T10:11:13.621Z,80532.25
2023-01-22T10:16:15.225Z,80512.19
2023-01-22T10:21:16.633Z,80510.19
2023-01-22T10:26:24.893Z,80484.13
2023-01-22T10:31:35.578Z,80478.09
2023-01-22T10:36:37.141Z,80458.03
2023-01-22T10:41:39.422Z,80444.00
2023-01-22T10:46:40.910Z,80423.94
2023-01-22T10:51:46.721Z,80419.91
2023-01-22T10:56:48.667Z,80387.81
2023-01-22T11:01:58.356Z,80375.78
2023-01-22T11:07:27.713Z,80367.75
2023-01-22T11:12:33.106Z,80351.69
2023-01-22T11:17:40.454Z,80337.66
2023-01-22T11:22:46.253Z,80345.69
2023-01-22T11:28:28.366Z,80341.66
2023-01-22T11:33:41.740Z,80347.69
2023-01-22T11:38:56.283Z,80355.72
2023-01-22T11:44:24.745Z,80355.72
2023-01-22T11:49:43.086Z,80349.69
2023-01-22T11:55:06.610Z,80343.69
2023-01-22T12:00:25.817Z,80331.63
2023-01-22T12:05:46.392Z,80319.59
2023-01-22T12:10:55.023Z,80297.53
2023-01-22T12:16:09.821Z,80289.50
2023-01-22T12:21:39.585Z,80291.50
2023-01-22T12:26:52.269Z,80299.53
2023-01-22T12:32:04.795Z,80291.50
2023-01-22T12:37:07.664Z,80289.50
2023-01-22T12:42:35.455Z,80281.47
2023-01-22T12:47:45.782Z,80269.44
2023-01-22T12:52:59.255Z,80265.44
2023-01-22T12:58:02.188Z,80277.47
2023-01-22T13:03:31.071Z,80275.47
2023-01-22T13:08:42.535Z,80265.44
2023-01-22T13:13:50.868Z,80263.44
2023-01-22T13:18:55.501Z,80267.44
2023-01-22T13:23:58.702Z,80271.44
2023-01-22T13:29:18.211Z,80275.47
2023-01-22T13:34:20.048Z,80279.47
2023-01-22T13:39:26.617Z,80273.47
2023-01-22T13:44:34.558Z,80277.47
2023-01-22T13:49:42.772Z,80283.50
2023-01-22T13:54:53.148Z,80283.50
2023-01-22T13:59:57.727Z,80289.50
2023-01-22T14:04:59.349Z,80285.50
2023-01-22T14:10:16.325Z,80299.53
2023-01-22T14:15:20.503Z,80301.53
2023-01-22T14:20:22.090Z,80309.56
2023-01-22T14:25:23.693Z,80311.56
2023-01-22T14:30:25.526Z,80299.53
2023-01-22T14:35:27.643Z,80299.53
2023-01-22T14:40:30.283Z,80293.53
2023-01-22T14:45:32.045Z,80295.53
2023-01-22T14:50:33.770Z,80299.53
2023-01-22T14:55:35.604Z,80307.56
2023-01-22T15:00:38.500Z,80307.56
2023-01-22T15:05:39.993Z,80317.59
2023-01-22T15:10:41.486Z,80319.59
2023-01-22T15:15:43.029Z,80313.59
2023-01-22T15:20:44.502Z,80319.59
2023-01-22T15:25:56.334Z,80321.59
2023-01-22T15:31:07.374Z,80331.63
2023-01-22T15:36:09.053Z,80323.63
2023-01-22T15:41:31.027Z,80311.56
2023-01-22T15:46:35.700Z,80329.63
2023-01-22T15:51:37.182Z,80325.63
2023-01-22T15:56:38.629Z,80335.66
2023-01-22T16:01:41.290Z,80325.63
2023-01-22T16:06:42.781Z,80327.63
2023-01-22T16:11:44.275Z,80331.63
2023-01-22T16:16:45.817Z,80335.66
2023-01-22T16:21:48.001Z,80331.63
2023-01-22T16:26:49.523Z,80329.63
2023-01-22T16:31:51.325Z,80341.66
2023-01-22T16:36:52.931Z,80333.66
2023-01-22T16:41:54.638Z,80339.66
2023-01-22T16:46:59.681Z,80337.66
2023-01-22T16:52:20.790Z,80323.63
2023-01-22T16:57:23.698Z,80315.59
2023-01-22T17:02:25.249Z,80337.66
2023-01-22T17:07:33.561Z,80339.66
2023-01-22T17:12:35.656Z,80347.69
2023-01-22T17:17:37.183Z,80359.72
2023-01-22T17:22:38.659Z,80351.69
2023-01-22T17:27:40.128Z,80363.75
2023-01-22T17:32:41.774Z,80367.75
2023-01-22T17:37:43.430Z,80355.72
2023-01-22T17:42:44.951Z,80357.72
2023-01-22T17:47:46.530Z,80353.72
2023-01-22T17:52:48.060Z,80357.72
2023-01-22T17:57:54.366Z,80353.72
2023-01-22T18:02:55.831Z,80339.66
2023-01-22T18:07:57.485Z,80347.69
2023-01-22T18:12:58.901Z,80361.72
2023-01-22T18:18:00.393Z,80355.72
2023-01-22T18:23:01.965Z,80355.72
2023-01-22T18:28:04.104Z,80351.69
2023-01-22T18:33:05.577Z,80351.69
2023-01-22T18:38:07.186Z,80365.75
2023-01-22T18:43:11.665Z,80369.75
2023-01-22T18:48:15.428Z,80375.78
2023-01-22T18:53:16.922Z,80377.78
2023-01-22T18:58:36.268Z,80377.78
2023-01-22T19:03:39.766Z,80369.75
2023-01-22T19:08:41.187Z,80379.78
2023-01-22T19:13:44.887Z,80377.78
2023-01-22T19:18:46.624Z,80387.81
2023-01-22T19:23:50.885Z,80385.81
2023-01-22T19:28:58.639Z,80407.88
2023-01-22T19:34:01.776Z,80403.88
2023-01-22T19:39:09.515Z,80415.91
2023-01-22T19:44:12.021Z,80411.88
2023-01-22T19:49:13.864Z,80429.94
2023-01-22T19:54:15.312Z,80433.97
2023-01-22T19:59:18.717Z,80415.91
2023-01-22T20:04:26.708Z,80411.88
2023-01-22T20:09:29.808Z,80407.88
2023-01-22T20:14:33.644Z,80407.88
2023-01-22T20:19:38.119Z,80419.91
2023-01-22T20:24:40.967Z,80421.91
2023-01-22T20:29:42.452Z,80433.97
2023-01-22T20:34:48.645Z,80439.97
2023-01-22T20:39:50.197Z,80444.00
2023-01-22T20:44:52.205Z,80450.00
2023-01-22T20:49:53.702Z,80441.97
2023-01-22T20:55:01.837Z,80452.00
2023-01-22T21:00:04.857Z,80450.00
2023-01-22T21:05:06.635Z,80464.06
2023-01-22T21:10:08.987Z,80470.06
2023-01-22T21:15:10.613Z,80472.06
2023-01-22T21:20:12.341Z,80464.06
2023-01-22T21:25:13.862Z,80464.06
2023-01-22T21:30:15.565Z,80464.06
2023-01-22T21:35:17.255Z,80470.06
2023-01-22T21:40:19.195Z,80466.06
2023-01-22T21:45:39.896Z,80464.06
2023-01-22T21:50:41.911Z,80478.09
2023-01-22T21:55:53.166Z,80486.13
2023-01-22T22:00:55.506Z,80494.16
2023-01-22T22:05:57.733Z,80498.16
2023-01-22T22:11:00.016Z,80504.19
2023-01-22T22:16:02.835Z,80526.25
2023-01-22T22:21:06.746Z,80524.22
2023-01-22T22:26:10.465Z,80530.25
2023-01-22T22:31:14.716Z,80538.28
2023-01-22T22:36:21.411Z,80550.31
2023-01-22T22:41:25.479Z,80552.31
2023-01-22T22:46:29.648Z,80562.34
2023-01-22T22:51:36.354Z,80570.38
2023-01-22T22:56:38.104Z,80576.41
2023-01-22T23:01:39.514Z,80586.44
2023-01-22T23:06:44.441Z,80594.47
2023-01-22T23:11:46.702Z,80596.47
2023-01-22T23:16:49.297Z,80602.47
2023-01-22T23:21:53.549Z,80596.47
2023-01-22T23:26:55.911Z,80606.50
2023-01-22T23:31:57.556Z,80606.50
2023-01-22T23:36:59.094Z,80612.50
2023-01-22T23:42:00.541Z,80600.47
2023-01-22T23:47:02.093Z,80602.47
2023-01-22T23:52:03.651Z,80588.44
2023-01-22T23:57:05.065Z,80606.50
